createdAt,value
2023-01-09T00:00:54.685Z,14.67
2023-01-09T00:03:57.821Z,15.77
2023-01-09T00:07:02.176Z,15.03
2023-01-09T00:10:05.943Z,15.17
2023-01-09T00:13:11.123Z,14.73
2023-01-09T00:16:14.892Z,13.90
2023-01-09T00:19:17.937Z,14.83
2023-01-09T00:22:22.493Z,15.13
2023-01-09T00:25:25.549Z,14.67
2023-01-09T00:28:28.551Z,14.63
2023-01-09T00:31:31.983Z,14.00
2023-01-09T00:34:37.418Z,14.00
2023-01-09T00:37:41.874Z,14.20
2023-01-09T00:40:44.861Z,14.30
2023-01-09T00:43:51.251Z,14.60
2023-01-09T00:46:58.773Z,14.73
2023-01-09T00:50:04.872Z,15.57
2023-01-09T00:53:13.865Z,15.73
2023-01-09T00:56:20.303Z,16.97
2023-01-09T00:59:23.821Z,15.20
2023-01-09T01:02:29.796Z,14.57
2023-01-09T01:05:53.330Z,15.07
2023-01-09T01:08:58.800Z,15.40
2023-01-09T01:12:07.064Z,15.93
2023-01-09T01:15:18.225Z,15.80
2023-01-09T01:18:21.296Z,15.57
2023-01-09T01:21:24.389Z,15.07
2023-01-09T01:24:28.774Z,14.67
2023-01-09T01:27:31.814Z,14.30
2023-01-09T01:30:35.076Z,14.70
2023-01-09T01:33:38.111Z,15.40
2023-01-09T01:36:41.171Z,15.37
2023-01-09T01:39:45.623Z,15.67
2023-01-09T01:42:49.118Z,15.87
2023-01-09T01:45:52.396Z,16.13
2023-01-09T01:49:00.641Z,17.23
2023-01-09T01:52:03.902Z,17.43
2023-01-09T01:55:10.186Z,16.90
2023-01-09T01:58:16.745Z,16.90
2023-01-09T02:01:23.568Z,16.27
2023-01-09T02:04:27.071Z,15.73
2023-01-09T02:07:31.049Z,16.30
2023-01-09T02:10:37.964Z,15.70
2023-01-09T02:13:41.219Z,16.07
2023-01-09T02:16:53.569Z,16.73
2023-01-09T02:20:37.791Z,16.43
2023-01-09T02:24:16.485Z,16.37
2023-01-09T02:27:36.457Z,17.00
2023-01-09T02:30:48.021Z,16.07
2023-01-09T02:33:59.360Z,17.27
2023-01-09T02:37:07.957Z,17.57
2023-01-09T02:40:23.816Z,17.77
2023-01-09T02:43:27.367Z,18.07
2023-01-09T02:46:32.293Z,17.20
2023-01-09T02:49:40.378Z,18.23
2023-01-09T02:53:21.306Z,17.40
2023-01-09T02:57:02.234Z,17.50
2023-01-09T03:00:12.075Z,18.30
2023-01-09T03:03:25.289Z,17.53
2023-01-09T03:06:35.627Z,17.57
2023-01-09T03:09:42.342Z,18.23
2023-01-09T03:12:46.496Z,17.13
2023-01-09T03:15:52.293Z,18.43
2023-01-09T03:18:58.375Z,18.53
2023-01-09T03:22:01.934Z,16.53
2023-01-09T03:25:05.067Z,17.90
2023-01-09T03:28:14.217Z,17.10
2023-01-09T03:31:17.744Z,17.77
2023-01-09T03:34:23.667Z,19.50
2023-01-09T03:37:26.724Z,18.70
2023-01-09T03:40:29.838Z,18.20
2023-01-09T03:43:34.658Z,18.47
2023-01-09T03:46:37.784Z,19.20
2023-01-09T03:49:42.194Z,18.53
2023-01-09T03:52:45.238Z,18.13
2023-01-09T03:55:49.677Z,19.10
2023-01-09T03:58:53.555Z,18.57
2023-01-09T04:01:56.715Z,17.77
2023-01-09T04:05:01.221Z,17.70
2023-01-09T04:08:04.280Z,18.60
2023-01-09T04:11:07.426Z,18.97
2023-01-09T04:14:10.459Z,17.83
2023-01-09T04:17:13.466Z,18.40
2023-01-09T04:20:18.345Z,18.00
2023-01-09T04:23:21.311Z,17.33
2023-01-09T04:26:24.444Z,17.67
2023-01-09T04:29:27.516Z,17.20
2023-01-09T04:32:33.226Z,19.10
2023-01-09T04:35:37.676Z,18.83
2023-01-09T04:38:40.725Z,18.13
2023-01-09T04:41:52.659Z,18.50
2023-01-09T04:44:55.687Z,16.80
2023-01-09T04:47:58.680Z,17.17
2023-01-09T04:51:03.102Z,18.07
2023-01-09T04:54:06.976Z,17.83
2023-01-09T04:57:10.266Z,18.33
2023-01-09T05:00:13.808Z,17.50
2023-01-09T05:03:16.861Z,18.07
2023-01-09T05:06:21.235Z,17.77
2023-01-09T05:09:24.298Z,17.80
2023-01-09T05:12:27.440Z,18.33
2023-01-09T05:15:31.025Z,18.57
2023-01-09T05:18:34.024Z,18.10
2023-01-09T05:21:39.795Z,16.87
2023-01-09T05:24:43.121Z,17.77
2023-01-09T05:27:47.171Z,16.73
2023-01-09T05:30:50.285Z,16.73
2023-01-09T05:33:53.432Z,17.63
2023-01-09T05:36:57.831Z,18.87
2023-01-09T05:40:00.890Z,18.13
2023-01-09T05:43:04.126Z,17.77
2023-01-09T05:46:07.379Z,18.00
2023-01-09T05:49:10.606Z,17.87
2023-01-09T05:52:15.163Z,18.73
2023-01-09T05:55:18.377Z,18.20
2023-01-09T05:58:21.434Z,19.20
2023-01-09T06:01:24.572Z,19.33
2023-01-09T06:04:29.816Z,18.90
2023-01-09T06:07:36.579Z,19.70
2023-01-09T06:10:39.809Z,18.53
2023-01-09T06:13:42.823Z,19.27
2023-01-09T06:16:45.806Z,18.80
2023-01-09T06:19:48.829Z,19.93
2023-01-09T06:22:53.260Z,18.73
2023-01-09T06:25:56.269Z,18.33
2023-01-09T06:29:00.845Z,19.00
2023-01-09T06:32:03.914Z,19.17
2023-01-09T06:35:07.358Z,19.87
2023-01-09T06:38:12.363Z,19.20
2023-01-09T06:41:15.465Z,18.80
2023-01-09T06:44:18.434Z,18.73
2023-01-09T06:47:21.355Z,19.03
2023-01-09T06:50:24.402Z,19.03
2023-01-09T06:53:29.119Z,19.83
2023-01-09T06:56:32.274Z,19.97
2023-01-09T06:59:35.371Z,19.43
2023-01-09T07:02:38.350Z,19.73
2023-01-09T07:05:43.718Z,19.23
2023-01-09T07:08:48.111Z,19.33
2023-01-09T07:11:51.074Z,19.60
2023-01-09T07:14:56.181Z,18.97
2023-01-09T07:18:00.563Z,19.03
2023-01-09T07:21:03.684Z,17.37
2023-01-09T07:24:08.255Z,19.67
2023-01-09T07:27:11.749Z,18.83
2023-01-09T07:30:16.160Z,19.50
2023-01-09T07:33:19.219Z,18.40
2023-01-09T07:36:22.277Z,19.43
2023-01-09T07:39:27.929Z,20.10
2023-01-09T07:42:30.963Z,18.53
2023-01-09T07:45:33.974Z,18.67
2023-01-09T07:48:36.997Z,18.57
2023-01-09T07:51:43.124Z,19.67
2023-01-09T07:54:47.473Z,19.43
2023-01-09T07:57:54.201Z,19.17
2023-01-09T08:00:57.269Z,19.20
2023-01-09T08:04:00.422Z,20.07
2023-01-09T08:07:06.310Z,19.67
2023-01-09T08:10:12.060Z,18.90
2023-01-09T08:13:15.161Z,19.93
2023-01-09T08:16:18.480Z,19.73
2023-01-09T08:19:21.544Z,19.80
2023-01-09T08:22:24.493Z,21.33
2023-01-09T08:25:28.916Z,21.37
2023-01-09T08:28:32.116Z,19.50
2023-01-09T08:31:35.191Z,20.43
2023-01-09T08:34:38.229Z,20.30
2023-01-09T08:37:44.735Z,20.23
2023-01-09T08:40:49.605Z,18.70
2023-01-09T08:44:10.011Z,18.97
2023-01-09T08:47:24.207Z,19.67
2023-01-09T08:50:27.234Z,19.63
2023-01-09T08:53:31.466Z,18.97
2023-01-09T08:56:35.999Z,19.43
2023-01-09T08:59:39.159Z,17.97
2023-01-09T09:02:42.218Z,18.43
2023-01-09T09:05:46.805Z,18.07
2023-01-09T09:08:51.735Z,18.77
2023-01-09T09:11:56.184Z,18.70
2023-01-09T09:15:16.779Z,18.60
2023-01-09T09:18:19.796Z,20.23
2023-01-09T09:21:22.855Z,17.80
2023-01-09T09:24:25.871Z,17.67
2023-01-09T09:27:30.245Z,17.83
2023-01-09T09:30:33.477Z,16.33
2023-01-09T09:33:36.411Z,18.63
2023-01-09T09:36:39.468Z,18.77
2023-01-09T09:39:42.498Z,18.17
2023-01-09T09:43:20.926Z,17.80
2023-01-09T09:46:34.204Z,17.13
2023-01-09T09:49:44.136Z,17.77
2023-01-09T09:52:58.405Z,18.20
2023-01-09T09:56:02.899Z,17.73
2023-01-09T09:59:16.142Z,17.13
2023-01-09T10:02:28.738Z,18.10
2023-01-09T10:05:35.841Z,16.77
2023-01-09T10:08:44.502Z,15.93
2023-01-09T10:11:55.303Z,16.17
2023-01-09T10:15:01.471Z,16.33
2023-01-09T10:18:20.319Z,16.30
2023-01-09T10:21:31.272Z,15.40
2023-01-09T10:24:45.329Z,14.83
2023-01-09T10:28:08.219Z,14.37
2023-01-09T10:31:18.524Z,13.60
2023-01-09T10:34:37.855Z,14.60
2023-01-09T10:37:45.818Z,13.07
2023-01-09T10:40:59.511Z,13.03
2023-01-09T10:44:09.336Z,13.07
2023-01-09T10:47:19.296Z,12.87
2023-01-09T10:50:24.552Z,12.30
2023-01-09T10:53:30.854Z,12.23
2023-01-09T10:56:38.298Z,11.40
2023-01-09T10:59:41.830Z,11.30
2023-01-09T11:02:46.500Z,10.40
2023-01-09T11:05:53.120Z,11.63
2023-01-09T11:09:00.115Z,10.93
2023-01-09T11:12:25.171Z,10.57
2023-01-09T11:15:31.982Z,10.40
2023-01-09T11:18:39.608Z,9.90
2023-01-09T11:21:42.835Z,10.63
2023-01-09T11:24:46.283Z,9.20
2023-01-09T11:28:08.263Z,9.97
2023-01-09T11:31:11.843Z,9.13
2023-01-09T11:34:19.771Z,9.10
2023-01-09T11:37:27.386Z,8.93
2023-01-09T11:40:32.889Z,8.40
2023-01-09T11:43:38.904Z,7.80
2023-01-09T11:46:44.686Z,8.07
2023-01-09T11:49:51.296Z,8.00
2023-01-09T11:53:14.147Z,7.40
2023-01-09T11:56:18.331Z,7.30
2023-01-09T11:59:23.871Z,6.57
2023-01-09T12:03:12.659Z,7.33
2023-01-09T12:06:30.171Z,6.80
2023-01-09T12:09:42.458Z,6.73
2023-01-09T12:12:55.800Z,6.23
2023-01-09T12:16:09.517Z,5.70
2023-01-09T12:19:41.967Z,5.77
2023-01-09T12:22:57.319Z,5.77
2023-01-09T12:26:14.075Z,5.40
2023-01-09T12:29:41.537Z,5.27
2023-01-09T12:33:12.111Z,5.20
2023-01-09T12:36:25.481Z,5.03
2023-01-09T12:39:43.708Z,4.97
2023-01-09T12:42:54.312Z,4.83
2023-01-09T12:46:08.450Z,5.97
2023-01-09T12:49:28.979Z,4.73
2023-01-09T12:52:37.915Z,5.03
2023-01-09T12:55:47.968Z,4.67
2023-01-09T12:58:54.169Z,4.93
2023-01-09T13:02:05.722Z,4.90
2023-01-09T13:05:15.786Z,4.67
2023-01-09T13:08:24.449Z,4.77
2023-01-09T13:11:38.875Z,4.60
2023-01-09T13:14:51.728Z,4.60
2023-01-09T13:17:58.635Z,4.50
2023-01-09T13:21:02.177Z,4.90
2023-01-09T13:24:14.744Z,4.93
2023-01-09T13:27:28.773Z,5.00
2023-01-09T13:31:01.589Z,4.27
2023-01-09T13:34:14.190Z,4.40
2023-01-09T13:37:25.842Z,5.13
2023-01-09T13:40:32.848Z,5.40
2023-01-09T13:43:55.820Z,4.57
2023-01-09T13:47:01.080Z,4.20
2023-01-09T13:50:26.613Z,4.33
2023-01-09T13:53:51.011Z,3.93
2023-01-09T13:57:26.043Z,4.23
2023-01-09T14:00:52.093Z,4.07
2023-01-09T14:04:31.986Z,4.73
2023-01-09T14:07:42.344Z,4.80
2023-01-09T14:10:50.194Z,6.00
2023-01-09T14:14:03.105Z,4.30
2023-01-09T14:17:18.617Z,3.93
2023-01-09T14:20:29.154Z,3.93
2023-01-09T14:23:50.785Z,4.23
2023-01-09T14:26:57.262Z,3.87
2023-01-09T14:30:29.724Z,4.30
2023-01-09T14:33:35.800Z,3.80
2023-01-09T14:36:39.053Z,4.07
2023-01-09T14:39:45.910Z,3.67
2023-01-09T14:42:53.628Z,7.30
2023-01-09T14:46:07.700Z,4.20
2023-01-09T14:49:22.221Z,3.70
2023-01-09T14:52:30.417Z,3.90
2023-01-09T14:55:41.151Z,4.00
2023-01-09T14:58:44.206Z,4.10
2023-01-09T15:01:51.384Z,4.33
2023-01-09T15:04:58.023Z,4.67
2023-01-09T15:08:05.390Z,4.57
2023-01-09T15:11:13.301Z,4.97
2023-01-09T15:14:24.445Z,4.10
2023-01-09T15:17:31.752Z,4.47
2023-01-09T15:20:36.622Z,4.33
2023-01-09T15:23:39.669Z,4.10
2023-01-09T15:26:43.046Z,4.13
2023-01-09T15:29:46.299Z,4.67
2023-01-09T15:32:51.242Z,4.80
2023-01-09T15:36:00.298Z,5.00
2023-01-09T15:39:03.701Z,5.03
2023-01-09T15:42:38.036Z,5.60
2023-01-09T15:45:43.134Z,6.43
2023-01-09T15:48:46.356Z,6.60
2023-01-09T15:51:52.092Z,6.60
2023-01-09T15:54:55.351Z,5.70
2023-01-09T15:57:58.401Z,4.50
2023-01-09T16:01:03.822Z,4.93
2023-01-09T16:04:09.000Z,5.63
2023-01-09T16:07:17.297Z,5.77
2023-01-09T16:10:26.258Z,5.43
2023-01-09T16:13:32.580Z,4.93
2023-01-09T16:16:37.114Z,4.10
2023-01-09T16:19:47.963Z,4.60
2023-01-09T16:22:56.725Z,5.37
2023-01-09T16:26:10.787Z,5.10
2023-01-09T16:29:38.825Z,5.20
2023-01-09T16:32:48.463Z,5.00
2023-01-09T16:35:53.820Z,5.50
2023-01-09T16:39:02.917Z,4.43
2023-01-09T16:42:27.444Z,5.17
2023-01-09T16:45:34.153Z,3.90
2023-01-09T16:48:37.726Z,4.43
2023-01-09T16:51:41.982Z,4.10
2023-01-09T16:54:47.595Z,4.07
2023-01-09T16:57:50.997Z,5.57
2023-01-09T17:00:57.595Z,5.90
2023-01-09T17:04:00.682Z,6.43
2023-01-09T17:07:03.752Z,5.87
2023-01-09T17:10:20.522Z,5.90
2023-01-09T17:13:25.190Z,5.20
2023-01-09T17:16:29.068Z,6.07
2023-01-09T17:19:32.108Z,5.50
2023-01-09T17:22:35.146Z,5.20
2023-01-09T17:26:10.733Z,5.70
2023-01-09T17:29:13.756Z,4.40
2023-01-09T17:32:17.815Z,3.90
2023-01-09T17:35:20.920Z,4.30
2023-01-09T17:38:23.998Z,4.63
2023-01-09T17:41:31.811Z,4.00
2023-01-09T17:44:34.844Z,3.67
2023-01-09T17:47:37.896Z,3.90
2023-01-09T17:50:40.965Z,3.97
2023-01-09T17:53:44.002Z,5.30
2023-01-09T17:56:52.228Z,5.33
2023-01-09T17:59:55.238Z,5.97
2023-01-09T18:02:58.559Z,6.43
2023-01-09T18:06:01.857Z,7.23
2023-01-09T18:09:05.577Z,6.90
2023-01-09T18:12:10.617Z,5.70
2023-01-09T18:15:15.474Z,5.97
2023-01-09T18:18:19.968Z,6.20
2023-01-09T18:21:24.767Z,5.17
2023-01-09T18:24:28.102Z,4.93
2023-01-09T18:27:32.559Z,4.93
2023-01-09T18:30:35.823Z,4.57
2023-01-09T18:33:38.920Z,4.40
2023-01-09T18:36:41.952Z,4.10
2023-01-09T18:39:45.121Z,4.47
2023-01-09T18:42:49.467Z,4.83
2023-01-09T18:45:53.084Z,5.40
2023-01-09T18:48:57.371Z,8.33
2023-01-09T18:52:00.427Z,5.17
2023-01-09T18:55:03.558Z,4.43
2023-01-09T18:58:08.048Z,4.20
2023-01-09T19:01:11.176Z,4.20
2023-01-09T19:04:14.276Z,3.97
2023-01-09T19:07:17.554Z,4.83
2023-01-09T19:10:20.854Z,4.13
2023-01-09T19:13:25.922Z,4.27
2023-01-09T19:16:29.026Z,4.20
2023-01-09T19:19:39.250Z,4.23
2023-01-09T19:22:42.347Z,4.73
2023-01-09T19:25:45.352Z,4.17
2023-01-09T19:28:50.237Z,4.40
2023-01-09T19:31:53.363Z,4.77
2023-01-09T19:34:56.469Z,4.20
2023-01-09T19:37:59.639Z,3.90
2023-01-09T19:41:12.969Z,4.50
2023-01-09T19:44:18.969Z,4.13
2023-01-09T19:47:21.967Z,6.80
2023-01-09T19:50:24.955Z,4.27
2023-01-09T19:53:30.160Z,3.63
2023-01-09T19:56:35.565Z,3.80
2023-01-09T19:59:40.459Z,3.47
2023-01-09T20:02:44.068Z,3.70
2023-01-09T20:05:47.145Z,3.60
2023-01-09T20:08:53.868Z,4.53
2023-01-09T20:11:58.387Z,3.53
2023-01-09T20:15:02.843Z,3.80
2023-01-09T20:18:07.770Z,3.57
2023-01-09T20:21:18.425Z,3.53
2023-01-09T20:24:21.600Z,3.60
2023-01-09T20:27:24.622Z,3.83
2023-01-09T20:30:28.991Z,4.13
2023-01-09T20:33:32.003Z,3.73
2023-01-09T20:36:35.140Z,3.93
2023-01-09T20:39:39.849Z,3.80
2023-01-09T20:42:42.886Z,3.50
2023-01-09T20:45:47.343Z,3.70
2023-01-09T20:48:50.655Z,3.70
2023-01-09T20:51:53.964Z,6.30
2023-01-09T20:54:56.967Z,3.90
2023-01-09T20:58:00.162Z,3.63
2023-01-09T21:01:08.312Z,4.30
2023-01-09T21:04:11.376Z,4.10
2023-01-09T21:07:14.401Z,3.70
2023-01-09T21:10:19.078Z,4.00
2023-01-09T21:13:22.123Z,3.97
2023-01-09T21:16:26.597Z,3.90
2023-01-09T21:19:29.630Z,3.87
2023-01-09T21:22:33.844Z,4.30
2023-01-09T21:25:40.287Z,4.00
2023-01-09T21:28:48.928Z,4.03
2023-01-09T21:31:55.541Z,4.50
2023-01-09T21:35:04.269Z,4.20
2023-01-09T21:38:08.231Z,3.93
2023-01-09T21:41:29.011Z,3.97
2023-01-09T21:44:53.645Z,4.17
2023-01-09T21:47:58.069Z,4.03
2023-01-09T21:51:03.551Z,4.40
2023-01-09T21:54:06.717Z,4.20
2023-01-09T21:57:10.170Z,4.20
2023-01-09T22:00:14.654Z,4.23
2023-01-09T22:03:19.088Z,5.20
2023-01-09T22:06:29.477Z,4.97
2023-01-09T22:09:32.533Z,4.97
2023-01-09T22:12:35.603Z,4.20
2023-01-09T22:15:38.651Z,4.10
2023-01-09T22:18:43.228Z,4.20
2023-01-09T22:21:46.284Z,4.30
2023-01-09T22:24:50.210Z,4.50
2023-01-09T22:27:53.511Z,4.10
2023-01-09T22:30:56.512Z,4.43
2023-01-09T22:34:02.541Z,4.20
2023-01-09T22:37:05.862Z,4.70
2023-01-09T22:40:10.714Z,4.27
2023-01-09T22:43:16.309Z,4.60
2023-01-09T22:46:20.003Z,4.90
2023-01-09T22:49:51.339Z,4.50
2023-01-09T22:52:57.683Z,4.30
2023-01-09T22:56:02.649Z,4.10
2023-01-09T22:59:05.585Z,4.10
2023-01-09T23:02:08.683Z,4.30
2023-01-09T23:05:13.350Z,4.23
2023-01-09T23:08:16.699Z,3.93
2023-01-09T23:11:42.121Z,4.27
2023-01-09T23:14:47.855Z,3.80
2023-01-09T23:17:51.134Z,4.50
2023-01-09T23:20:57.172Z,4.20
2023-01-09T23:24:00.132Z,4.00
2023-01-09T23:27:03.135Z,3.97
2023-01-09T23:30:07.149Z,3.83
2023-01-09T23:33:10.215Z,4.30
2023-01-09T23:36:14.628Z,4.30
2023-01-09T23:39:17.699Z,3.93
2023-01-09T23:42:42.852Z,4.60
2023-01-09T23:45:47.233Z,4.00
2023-01-09T23:48:50.290Z,4.37
2023-01-09T23:51:54.754Z,4.40
2023-01-09T23:54:57.790Z,4.37
2023-01-09T23:58:00.836Z,4.33
